createdAt,value
2019-05-07T00:01:34.134Z,52.30
2019-05-07T00:04:08.117Z,53.57
2019-05-07T00:06:43.290Z,50.33
2019-05-07T00:09:15.479Z,58.40
2019-05-07T00:11:48.541Z,58.80
2019-05-07T00:14:23.103Z,51.87
2019-05-07T00:16:57.015Z,52.43
2019-05-07T00:19:32.139Z,47.83
2019-05-07T00:22:04.556Z,52.20
2019-05-07T00:24:37.434Z,51.87
2019-05-07T00:27:10.212Z,45.47
2019-05-07T00:29:43.137Z,49.47
2019-05-07T00:32:15.985Z,50.90
2019-05-07T00:34:54.260Z,54.93
2019-05-07T00:37:58.920Z,52.57
2019-05-07T00:41:03.607Z,53.70
2019-05-07T00:43:39.824Z,57.80
2019-05-07T00:46:15.576Z,54.10
2019-05-07T00:48:49.522Z,49.27
2019-05-07T00:51:30.313Z,47.00
2019-05-07T00:54:04.300Z,51.33
2019-05-07T00:56:37.274Z,50.50
2019-05-07T00:59:10.345Z,53.43
2019-05-07T01:01:43.423Z,47.70
2019-05-07T01:04:16.429Z,52.60
2019-05-07T01:06:49.377Z,51.57
2019-05-07T01:09:22.908Z,57.40
2019-05-07T01:11:55.806Z,56.90
2019-05-07T01:14:29.551Z,57.47
2019-05-07T01:17:02.562Z,61.83
2019-05-07T01:19:35.686Z,49.20
2019-05-07T01:22:08.487Z,52.73
2019-05-07T01:24:42.913Z,54.93
2019-05-07T01:27:15.729Z,54.87
2019-05-07T01:29:48.767Z,55.27
2019-05-07T01:32:27.702Z,54.20
2019-05-07T01:35:06.053Z,52.53
2019-05-07T01:37:58.436Z,57.13
2019-05-07T01:40:32.364Z,52.40
2019-05-07T01:43:05.490Z,61.27
2019-05-07T01:45:49.090Z,64.77
2019-05-07T01:48:18.167Z,62.53
2019-05-07T01:50:52.567Z,59.67
2019-05-07T01:53:25.815Z,65.37
2019-05-07T01:55:58.715Z,58.27
2019-05-07T01:58:33.177Z,60.93
2019-05-07T02:01:06.484Z,56.07
2019-05-07T02:03:52.773Z,54.50
2019-05-07T02:06:34.021Z,58.20
2019-05-07T02:09:14.370Z,60.00
2019-05-07T02:11:49.716Z,59.00
2019-05-07T02:14:22.612Z,59.00
2019-05-07T02:16:55.387Z,52.27
2019-05-07T02:19:28.171Z,70.30
2019-05-07T02:22:02.757Z,71.50
2019-05-07T02:24:35.757Z,65.37
2019-05-07T02:27:08.551Z,72.10
2019-05-07T02:29:43.080Z,68.70
2019-05-07T02:32:15.998Z,65.67
2019-05-07T02:34:48.869Z,67.10
2019-05-07T02:37:33.940Z,71.97
2019-05-07T02:40:13.942Z,67.30
2019-05-07T02:42:45.212Z,61.53
2019-05-07T02:45:36.581Z,61.97
2019-05-07T02:48:12.763Z,60.17
2019-05-07T02:50:53.846Z,63.50
2019-05-07T02:53:33.738Z,68.80
2019-05-07T02:56:06.854Z,69.30
2019-05-07T02:58:39.583Z,71.17
2019-05-07T03:01:13.763Z,71.20
2019-05-07T03:03:47.027Z,72.03
2019-05-07T03:06:23.017Z,70.70
2019-05-07T03:08:54.606Z,61.20
2019-05-07T03:11:27.451Z,60.23
2019-05-07T03:14:02.965Z,65.80
2019-05-07T03:16:42.495Z,63.97
2019-05-07T03:19:13.069Z,67.33
2019-05-07T03:21:54.864Z,66.93
2019-05-07T03:24:52.936Z,69.73
2019-05-07T03:27:25.867Z,68.40
2019-05-07T03:30:25.556Z,70.00
2019-05-07T03:33:07.014Z,63.37
2019-05-07T03:35:46.150Z,67.63
2019-05-07T03:38:16.107Z,61.50
2019-05-07T03:40:49.091Z,67.10
2019-05-07T03:43:23.703Z,61.53
2019-05-07T03:46:05.163Z,61.40
2019-05-07T03:48:38.701Z,62.70
2019-05-07T03:51:13.270Z,63.83
2019-05-07T03:53:46.149Z,60.20
2019-05-07T03:56:18.945Z,69.33
2019-05-07T03:58:52.913Z,65.73
2019-05-07T04:01:25.969Z,60.83
2019-05-07T04:03:58.798Z,63.80
2019-05-07T04:06:33.243Z,58.33
2019-05-07T04:09:07.225Z,60.17
2019-05-07T04:11:43.071Z,57.43
2019-05-07T04:14:14.990Z,60.53
2019-05-07T04:16:47.766Z,55.93
2019-05-07T04:19:23.393Z,70.07
2019-05-07T04:21:55.577Z,56.73
2019-05-07T04:24:47.990Z,63.43
2019-05-07T04:27:26.621Z,60.00
2019-05-07T04:29:59.377Z,57.07
2019-05-07T04:32:38.850Z,62.47
2019-05-07T04:35:27.588Z,66.17
2019-05-07T04:38:03.416Z,56.50
2019-05-07T04:40:35.652Z,57.33
2019-05-07T04:43:08.525Z,60.47
2019-05-07T04:45:43.311Z,59.40
2019-05-07T04:48:16.041Z,64.93
2019-05-07T04:50:53.924Z,61.20
2019-05-07T04:53:28.810Z,58.03
2019-05-07T04:56:03.276Z,61.23
2019-05-07T04:58:36.483Z,60.77
2019-05-07T05:01:13.785Z,56.50
2019-05-07T05:03:46.158Z,60.83
2019-05-07T05:06:19.044Z,60.73
2019-05-07T05:08:55.394Z,64.63
2019-05-07T05:11:26.676Z,56.20
2019-05-07T05:14:02.552Z,58.80
2019-05-07T05:16:34.244Z,58.63
2019-05-07T05:19:07.358Z,50.03
2019-05-07T05:22:09.008Z,50.53
2019-05-07T05:24:44.727Z,45.73
2019-05-07T05:27:17.939Z,43.37
2019-05-07T05:29:52.033Z,51.30
2019-05-07T05:32:25.053Z,47.40
2019-05-07T05:34:59.630Z,48.13
2019-05-07T05:37:32.510Z,61.63
2019-05-07T05:40:08.917Z,47.60
2019-05-07T05:42:47.185Z,45.47
2019-05-07T05:45:42.648Z,44.80
2019-05-07T05:48:15.450Z,52.67
2019-05-07T05:51:06.753Z,43.23
2019-05-07T05:54:05.165Z,41.67
2019-05-07T05:56:46.919Z,43.87
2019-05-07T05:59:37.002Z,46.23
2019-05-07T06:02:22.665Z,44.57
2019-05-07T06:05:02.700Z,47.80
2019-05-07T06:07:42.607Z,47.77
2019-05-07T06:10:33.040Z,45.33
2019-05-07T06:13:20.059Z,43.07
2019-05-07T06:16:14.339Z,44.67
2019-05-07T06:19:06.874Z,47.77
2019-05-07T06:21:58.055Z,45.70
2019-05-07T06:24:45.710Z,44.50
2019-05-07T06:27:18.489Z,41.40
2019-05-07T06:29:52.433Z,42.93
2019-05-07T06:32:25.392Z,45.50
2019-05-07T06:34:58.224Z,45.97
2019-05-07T06:37:32.128Z,43.97
2019-05-07T06:40:37.355Z,42.43
2019-05-07T06:43:21.953Z,46.80
2019-05-07T06:45:56.585Z,44.73
2019-05-07T06:48:40.873Z,44.00
2019-05-07T06:51:04.133Z,46.80
2019-05-07T06:53:37.721Z,44.93
2019-05-07T06:56:12.202Z,43.37
2019-05-07T06:59:04.693Z,40.73
2019-05-07T07:01:52.994Z,47.00
2019-05-07T07:04:45.493Z,42.60
2019-05-07T07:07:30.958Z,40.20
2019-05-07T07:10:23.276Z,38.40
2019-05-07T07:12:56.246Z,35.57
2019-05-07T07:15:29.411Z,34.50
2019-05-07T07:18:03.258Z,45.83
2019-05-07T07:20:36.493Z,31.23
2019-05-07T07:23:11.701Z,28.90
2019-05-07T07:25:44.303Z,28.60
2019-05-07T07:28:17.054Z,22.53
2019-05-07T07:31:15.387Z,21.87
2019-05-07T07:33:48.922Z,34.03
2019-05-07T07:36:23.812Z,32.27
2019-05-07T07:38:56.713Z,35.93
2019-05-07T07:41:36.248Z,34.83
2019-05-07T07:44:10.062Z,36.67
2019-05-07T07:46:42.906Z,32.55
2019-05-07T07:49:15.768Z,29.80
2019-05-07T07:51:48.592Z,33.43
2019-05-07T07:54:22.634Z,33.88
2019-05-07T07:57:18.247Z,37.95
2019-05-07T08:00:16.972Z,38.67
2019-05-07T08:02:54.828Z,41.93
2019-05-07T08:05:27.887Z,35.48
2019-05-07T08:08:02.275Z,37.80
2019-05-07T08:10:35.401Z,33.90
2019-05-07T08:13:08.289Z,38.65
2019-05-07T08:15:42.970Z,36.93
2019-05-07T08:18:15.989Z,34.38
2019-05-07T08:20:48.924Z,31.30
2019-05-07T08:23:22.614Z,38.33
2019-05-07T08:25:55.702Z,39.03
2019-05-07T08:28:28.801Z,42.60
2019-05-07T08:31:32.041Z,32.25
2019-05-07T08:34:14.213Z,41.40
2019-05-07T08:36:47.403Z,37.63
2019-05-07T08:39:22.302Z,33.20
2019-05-07T08:41:55.474Z,37.73
2019-05-07T08:47:42.669Z,38.85
2019-05-07T08:50:15.921Z,33.63
2019-05-07T08:52:49.051Z,34.73
2019-05-07T08:55:22.037Z,31.70
2019-05-07T09:01:03.114Z,35.20
2019-05-07T09:03:42.905Z,33.85
2019-05-07T09:06:17.743Z,32.63
2019-05-07T09:08:52.563Z,29.87
2019-05-07T09:11:24.943Z,35.58
2019-05-07T09:13:57.739Z,34.90
2019-05-07T09:16:31.927Z,37.93
2019-05-07T09:19:05.645Z,36.73
2019-05-07T09:21:38.342Z,33.40
2019-05-07T09:24:12.753Z,30.37
2019-05-07T09:27:07.579Z,27.85
2019-05-07T09:30:06.103Z,33.33
2019-05-07T09:32:46.621Z,32.20
2019-05-07T09:35:25.954Z,24.05
2019-05-07T09:37:58.652Z,31.65
2019-05-07T09:40:32.030Z,29.57
2019-05-07T09:43:04.939Z,23.47
2019-05-07T09:45:38.742Z,25.55
2019-05-07T09:48:13.383Z,26.35
2019-05-07T09:50:46.122Z,24.02
2019-05-07T09:53:18.832Z,28.15
2019-05-07T09:55:51.680Z,28.92
2019-05-07T09:58:35.698Z,31.23
2019-05-07T10:01:01.933Z,30.90
2019-05-07T10:03:36.195Z,36.55
2019-05-07T10:06:08.953Z,32.80
2019-05-07T10:08:42.043Z,35.55
2019-05-07T10:11:22.545Z,25.55
2019-05-07T10:14:02.493Z,23.65
2019-05-07T10:16:43.079Z,27.17
2019-05-07T10:19:16.027Z,26.87
2019-05-07T10:21:48.838Z,26.85
2019-05-07T10:24:22.809Z,26.93
2019-05-07T10:26:56.934Z,26.45
2019-05-07T10:29:32.238Z,24.30
2019-05-07T10:32:05.190Z,26.17
2019-05-07T10:34:37.839Z,27.40
2019-05-07T10:37:12.010Z,28.30
2019-05-07T10:39:49.208Z,28.67
2019-05-07T10:42:22.710Z,25.77
2019-05-07T10:45:18.262Z,21.57
2019-05-07T10:48:02.429Z,25.88
2019-05-07T10:50:39.167Z,22.37
2019-05-07T10:53:12.424Z,21.07
2019-05-07T10:55:46.289Z,25.10
2019-05-07T10:58:19.088Z,20.25
2019-05-07T11:00:52.340Z,25.50
2019-05-07T11:03:25.199Z,22.30
2019-05-07T11:05:58.048Z,23.57
2019-05-07T11:08:32.975Z,17.73
2019-05-07T11:11:05.540Z,17.95
2019-05-07T11:13:38.253Z,23.67
2019-05-07T11:16:13.649Z,19.73
2019-05-07T11:18:48.179Z,20.62
2019-05-07T11:21:33.367Z,20.82
2019-05-07T11:24:05.990Z,21.75
2019-05-07T11:26:41.981Z,15.13
2019-05-07T11:29:14.948Z,15.70
2019-05-07T11:31:47.636Z,19.92
2019-05-07T11:34:21.987Z,19.10
2019-05-07T11:36:54.918Z,20.97
2019-05-07T11:39:27.615Z,14.98
2019-05-07T11:42:18.530Z,16.50
2019-05-07T11:44:52.143Z,16.15
2019-05-07T11:47:32.026Z,15.90
2019-05-07T11:50:17.430Z,13.90
2019-05-07T11:52:55.340Z,17.15
2019-05-07T11:55:27.983Z,21.02
2019-05-07T11:58:02.466Z,16.05
2019-05-07T12:00:49.246Z,19.10
2019-05-07T12:03:22.246Z,15.55
2019-05-07T12:05:54.853Z,17.82
2019-05-07T12:08:40.995Z,21.77
2019-05-07T12:11:02.623Z,23.35
2019-05-07T12:13:35.435Z,16.90
2019-05-07T12:16:08.116Z,20.55
2019-05-07T12:18:42.951Z,17.90
2019-05-07T12:21:20.226Z,22.67
2019-05-07T12:23:49.954Z,18.30
2019-05-07T12:26:22.613Z,20.00
2019-05-07T12:28:55.481Z,21.62
2019-05-07T12:31:46.481Z,18.55
2019-05-07T12:34:35.068Z,23.52
2019-05-07T12:37:07.751Z,22.85
2019-05-07T12:39:42.321Z,21.17
2019-05-07T12:42:14.976Z,24.87
2019-05-07T12:44:47.862Z,21.87
2019-05-07T12:47:22.351Z,16.00
2019-05-07T12:49:55.056Z,21.17
2019-05-07T12:52:52.974Z,19.17
2019-05-07T12:55:32.336Z,20.80
2019-05-07T12:58:04.925Z,17.48
2019-05-07T13:00:51.865Z,32.90
2019-05-07T13:03:46.611Z,20.25
2019-05-07T13:06:19.304Z,22.58
2019-05-07T13:08:52.270Z,22.35
2019-05-07T13:11:26.156Z,24.65
2019-05-07T13:13:58.831Z,26.42
2019-05-07T13:16:32.385Z,30.37
2019-05-07T13:19:05.301Z,28.40
2019-05-07T13:21:49.187Z,23.83
2019-05-07T13:24:16.551Z,23.35
2019-05-07T13:26:49.372Z,27.90
2019-05-07T13:29:22.303Z,23.18
2019-05-07T13:31:55.909Z,23.15
2019-05-07T13:34:28.732Z,24.23
2019-05-07T13:37:06.594Z,23.42
2019-05-07T13:39:46.940Z,24.57
2019-05-07T13:42:45.065Z,24.30
2019-05-07T13:45:25.682Z,21.20
2019-05-07T13:48:12.116Z,21.00
2019-05-07T13:50:45.456Z,19.65
2019-05-07T13:53:19.479Z,19.30
2019-05-07T13:55:52.101Z,22.80
2019-05-07T13:58:24.806Z,25.12
2019-05-07T14:01:11.969Z,24.60
2019-05-07T14:03:44.431Z,22.05
2019-05-07T14:06:36.740Z,21.42
2019-05-07T14:09:24.347Z,27.67
2019-05-07T14:11:57.466Z,19.85
2019-05-07T14:14:34.186Z,20.48
2019-05-07T14:17:05.203Z,19.57
2019-05-07T14:19:38.017Z,19.40
2019-05-07T14:22:17.949Z,18.55
2019-05-07T14:24:46.830Z,22.00
2019-05-07T14:27:19.690Z,18.65
2019-05-07T14:29:52.566Z,19.17
2019-05-07T14:32:31.635Z,17.92
2019-05-07T14:35:32.269Z,18.98
2019-05-07T14:38:13.904Z,22.07
2019-05-07T14:40:46.771Z,17.07
2019-05-07T14:43:28.934Z,21.82
2019-05-07T14:46:02.737Z,16.87
2019-05-07T14:48:36.379Z,20.05
2019-05-07T14:51:09.212Z,38.05
2019-05-07T14:53:43.726Z,16.45
2019-05-07T14:56:16.712Z,14.58
2019-05-07T14:58:51.560Z,17.75
2019-05-07T15:01:26.143Z,16.40
2019-05-07T15:04:02.164Z,17.42
2019-05-07T15:06:34.635Z,23.00
2019-05-07T15:09:07.431Z,13.08
2019-05-07T15:11:42.512Z,14.75
2019-05-07T15:14:15.671Z,10.58
2019-05-07T15:16:51.098Z,14.50
2019-05-07T15:19:24.013Z,14.30
2019-05-07T15:22:16.405Z,14.40
2019-05-07T15:24:49.152Z,12.45
2019-05-07T15:27:22.941Z,15.43
2019-05-07T15:29:55.853Z,14.93
2019-05-07T15:32:28.590Z,11.78
2019-05-07T15:35:02.735Z,14.73
2019-05-07T15:37:35.862Z,15.68
2019-05-07T15:40:10.662Z,11.43
2019-05-07T15:42:43.291Z,13.13
2019-05-07T15:45:16.477Z,40.12
2019-05-07T15:47:52.237Z,22.30
2019-05-07T15:50:28.081Z,13.28
2019-05-07T15:53:09.359Z,16.73
2019-05-07T15:55:42.102Z,12.10
2019-05-07T15:58:14.782Z,12.88
2019-05-07T16:00:47.469Z,12.15
2019-05-07T16:03:45.803Z,14.53
2019-05-07T16:06:18.617Z,11.68
2019-05-07T16:08:53.739Z,9.63
2019-05-07T16:11:26.749Z,11.97
2019-05-07T16:14:14.670Z,8.65
2019-05-07T16:16:47.769Z,9.83
2019-05-07T16:19:28.744Z,9.38
2019-05-07T16:22:05.989Z,9.58
2019-05-07T16:24:38.644Z,9.25
2019-05-07T16:27:12.109Z,11.65
2019-05-07T16:29:45.118Z,12.40
2019-05-07T16:32:19.558Z,10.53
2019-05-07T16:34:52.800Z,13.48
2019-05-07T16:37:25.697Z,17.42
2019-05-07T16:39:58.678Z,14.80
2019-05-07T16:42:32.683Z,8.75
2019-05-07T16:45:06.253Z,12.25
2019-05-07T16:47:39.039Z,9.10
2019-05-07T16:50:13.458Z,7.62
2019-05-07T16:52:46.335Z,10.23
2019-05-07T16:55:19.675Z,14.03
2019-05-07T16:58:02.057Z,9.13
2019-05-07T17:00:42.286Z,10.60
2019-05-07T17:03:21.024Z,14.33
2019-05-07T17:05:53.650Z,14.83
2019-05-07T17:08:57.025Z,11.68
2019-05-07T17:11:31.867Z,7.58
2019-05-07T17:14:06.495Z,23.62
2019-05-07T17:16:39.239Z,10.15
2019-05-07T17:19:15.258Z,13.48
2019-05-07T17:21:47.853Z,10.38
2019-05-07T17:24:22.217Z,12.43
2019-05-07T17:26:55.138Z,7.87
2019-05-07T17:29:27.978Z,11.03
2019-05-07T17:32:01.638Z,13.85
2019-05-07T17:34:36.150Z,9.98
2019-05-07T17:37:09.099Z,11.10
2019-05-07T17:39:42.591Z,13.15
2019-05-07T17:42:15.608Z,12.93
2019-05-07T17:44:48.584Z,16.17
2019-05-07T17:47:21.872Z,11.73
2019-05-07T17:49:54.671Z,12.37
2019-05-07T17:52:27.339Z,10.25
2019-05-07T17:55:02.118Z,10.38
2019-05-07T17:57:36.606Z,13.65
2019-05-07T18:00:10.174Z,11.78
2019-05-07T18:03:13.168Z,11.30
2019-05-07T18:05:46.359Z,14.55
2019-05-07T18:08:21.716Z,12.65
2019-05-07T18:10:57.410Z,18.42
2019-05-07T18:13:32.306Z,20.90
2019-05-07T18:16:12.229Z,56.83
2019-05-07T18:18:45.210Z,39.45
2019-05-07T18:21:18.189Z,22.65
2019-05-07T18:23:51.732Z,17.85
2019-05-07T18:26:30.437Z,18.00
2019-05-07T18:29:02.468Z,23.18
2019-05-07T18:32:00.744Z,13.28
2019-05-07T18:34:33.862Z,14.90
2019-05-07T18:37:06.558Z,9.68
2019-05-07T18:39:39.601Z,11.60
2019-05-07T18:42:12.676Z,14.38
2019-05-07T18:44:46.984Z,16.82
2019-05-07T18:47:22.171Z,9.15
2019-05-07T18:49:54.581Z,12.35
2019-05-07T18:52:27.516Z,11.18
2019-05-07T18:55:22.695Z,13.90
2019-05-07T18:57:55.605Z,11.40
2019-05-07T19:00:32.208Z,12.82
2019-05-07T19:03:05.046Z,13.20
2019-05-07T19:05:39.482Z,10.88
2019-05-07T19:08:14.175Z,14.20
2019-05-07T19:10:48.189Z,12.80
2019-05-07T19:13:22.244Z,12.15
2019-05-07T19:15:56.584Z,12.15
2019-05-07T19:18:32.481Z,12.33
2019-05-07T19:21:06.817Z,12.82
2019-05-07T19:23:39.756Z,14.78
2019-05-07T19:26:13.185Z,16.87
2019-05-07T19:28:46.211Z,17.83
2019-05-07T19:31:19.223Z,14.20
2019-05-07T19:33:52.593Z,13.53
2019-05-07T19:36:25.530Z,15.07
2019-05-07T19:39:01.962Z,13.17
2019-05-07T19:41:36.687Z,11.90
2019-05-07T19:44:09.467Z,11.13
2019-05-07T19:46:43.453Z,18.27
2019-05-07T19:49:17.330Z,12.43
2019-05-07T19:51:52.434Z,10.37
2019-05-07T19:54:25.242Z,16.30
2019-05-07T19:56:57.976Z,16.67
2019-05-07T19:59:32.645Z,15.60
2019-05-07T20:02:08.085Z,13.63
2019-05-07T20:04:42.650Z,10.60
2019-05-07T20:07:17.587Z,14.18
2019-05-07T20:09:52.313Z,13.93
2019-05-07T20:12:25.018Z,10.77
2019-05-07T20:14:58.727Z,12.47
2019-05-07T20:17:33.947Z,16.70
2019-05-07T20:20:07.267Z,12.50
2019-05-07T20:22:40.126Z,13.87
2019-05-07T20:25:18.981Z,15.10
2019-05-07T20:27:49.247Z,12.63
2019-05-07T20:30:22.889Z,18.10
2019-05-07T20:32:57.091Z,14.47
2019-05-07T20:35:29.975Z,13.47
2019-05-07T20:38:03.047Z,15.00
2019-05-07T20:40:35.965Z,15.37
2019-05-07T20:43:09.835Z,14.57
2019-05-07T20:45:45.917Z,25.57
2019-05-07T20:48:20.057Z,12.50
2019-05-07T20:50:52.809Z,11.33
2019-05-07T20:54:03.015Z,13.53
2019-05-07T20:56:37.272Z,12.27
2019-05-07T20:59:12.349Z,14.63
2019-05-07T21:01:44.807Z,19.03
2019-05-07T21:04:17.546Z,11.57
2019-05-07T21:06:52.379Z,12.43
2019-05-07T21:09:24.961Z,11.40
2019-05-07T21:11:57.740Z,10.27
2019-05-07T21:14:32.604Z,15.17
2019-05-07T21:17:05.695Z,9.93
2019-05-07T21:19:38.652Z,17.17
2019-05-07T21:22:13.254Z,18.33
2019-05-07T21:24:46.966Z,15.07
2019-05-07T21:27:19.898Z,9.63
2019-05-07T21:29:52.920Z,13.57
2019-05-07T21:32:25.682Z,13.80
2019-05-07T21:34:58.477Z,14.83
2019-05-07T21:37:32.646Z,14.87
2019-05-07T21:40:08.794Z,11.33
2019-05-07T21:42:42.565Z,15.20
2019-05-07T21:45:15.640Z,12.10
2019-05-07T21:47:48.314Z,13.20
2019-05-07T21:50:21.897Z,13.17
2019-05-07T21:52:59.821Z,14.13
2019-05-07T21:55:39.436Z,16.07
2019-05-07T21:58:32.865Z,11.47
2019-05-07T22:01:17.224Z,14.53
2019-05-07T22:03:54.397Z,13.80
2019-05-07T22:06:27.157Z,13.03
2019-05-07T22:09:02.130Z,12.33
2019-05-07T22:11:36.980Z,15.67
2019-05-07T22:14:09.709Z,13.00
2019-05-07T22:16:42.592Z,12.33
2019-05-07T22:19:15.429Z,14.97
2019-05-07T22:21:48.122Z,13.13
2019-05-07T22:24:22.455Z,12.40
2019-05-07T22:26:56.607Z,13.80
2019-05-07T22:29:29.238Z,13.00
2019-05-07T22:32:33.395Z,21.60
2019-05-07T22:35:22.673Z,15.90
2019-05-07T22:38:03.858Z,12.50
2019-05-07T22:40:38.622Z,19.83
2019-05-07T22:43:14.439Z,13.20
2019-05-07T22:45:47.504Z,14.10
2019-05-07T22:48:20.164Z,11.37
2019-05-07T22:50:52.957Z,13.17
2019-05-07T22:53:26.917Z,12.83
2019-05-07T22:55:59.707Z,10.40
2019-05-07T22:58:36.644Z,9.27
2019-05-07T23:01:12.961Z,11.00
2019-05-07T23:03:45.346Z,9.30
2019-05-07T23:06:18.292Z,9.87
2019-05-07T23:08:52.867Z,13.60
2019-05-07T23:11:25.469Z,9.73
2019-05-07T23:13:58.162Z,9.30
2019-05-07T23:16:32.433Z,10.50
2019-05-07T23:19:05.235Z,12.83
2019-05-07T23:21:39.733Z,13.87
2019-05-07T23:24:14.254Z,10.70
2019-05-07T23:26:50.455Z,13.53
2019-05-07T23:29:22.518Z,10.63
2019-05-07T23:31:56.729Z,11.70
2019-05-07T23:34:29.448Z,12.83
2019-05-07T23:37:02.573Z,10.63
2019-05-07T23:39:37.842Z,13.10
2019-05-07T23:42:15.234Z,10.17
2019-05-07T23:44:48.059Z,11.73
2019-05-07T23:47:22.622Z,9.67
2019-05-07T23:49:55.334Z,13.77
2019-05-07T23:52:29.723Z,11.50
2019-05-07T23:55:02.884Z,11.33
2019-05-07T23:57:36.850Z,12.80
